sensor_id;sensor_type;location;lat;lon;timestamp;temperature;humidity
22623;DHT22;11478;51.094;7.030;2024-01-11T00:00:11;-6.40;99.90
22623;DHT22;11478;51.094;7.030;2024-01-11T00:02:36;-6.40;99.90
22623;DHT22;11478;51.094;7.030;2024-01-11T00:05:03;-6.40;99.90
22623;DHT22;11478;51.094;7.030;2024-01-11T00:07:29;-6.40;99.90
22623;DHT22;11478;51.094;7.030;2024-01-11T00:09:54;-6.40;99.90
22623;DHT22;11478;51.094;7.030;2024-01-11T00:12:20;-6.40;99.90
22623;DHT22;11478;51.094;7.030;2024-01-11T00:14:46;-6.50;99.90
22623;DHT22;11478;51.094;7.030;2024-01-11T00:17:15;-6.50;99.90
22623;DHT22;11478;51.094;7.030;2024-01-11T00:19:41;-6.50;99.90
22623;DHT22;11478;51.094;7.030;2024-01-11T00:22:09;-6.40;99.90
22623;DHT22;11478;51.094;7.030;2024-01-11T00:24:35;-6.50;99.90
22623;DHT22;11478;51.094;7.030;2024-01-11T00:27:01;-6.40;99.90
22623;DHT22;11478;51.094;7.030;2024-01-11T00:29:27;-6.50;99.90
22623;DHT22;11478;51.094;7.030;2024-01-11T00:32:01;-6.50;99.90
22623;DHT22;11478;51.094;7.030;2024-01-11T00:34:26;-6.50;99.90
22623;DHT22;11478;51.094;7.030;2024-01-11T00:37:03;-6.50;99.90
22623;DHT22;11478;51.094;7.030;2024-01-11T00:39:29;-6.50;99.90
22623;DHT22;11478;51.094;7.030;2024-01-11T00:41:59;-6.50;99.90
22623;DHT22;11478;51.094;7.030;2024-01-11T00:44:25;-6.50;99.90
22623;DHT22;11478;51.094;7.030;2024-01-11T00:47:00;-6.50;99.90
22623;DHT22;11478;51.094;7.030;2024-01-11T00:49:26;-6.50;99.90
22623;DHT22;11478;51.094;7.030;2024-01-11T00:51:53;-6.50;99.90
22623;DHT22;11478;51.094;7.030;2024-01-11T00:54:19;-6.50;99.90
22623;DHT22;11478;51.094;7.030;2024-01-11T00:56:45;-6.50;99.90
22623;DHT22;11478;51.094;7.030;2024-01-11T00:59:11;-6.50;99.90
22623;DHT22;11478;51.094;7.030;2024-01-11T01:01:40;-6.50;99.90
22623;DHT22;11478;51.094;7.030;2024-01-11T01:04:06;-6.50;99.90
22623;DHT22;11478;51.094;7.030;2024-01-11T01:06:31;-6.50;99.90
22623;DHT22;11478;51.094;7.030;2024-01-11T01:08:57;-6.50;99.90
22623;DHT22;11478;51.094;7.030;2024-01-11T01:11:24;-6.50;99.90
22623;DHT22;11478;51.094;7.030;2024-01-11T01:13:50;-6.60;99.90
22623;DHT22;11478;51.094;7.030;2024-01-11T01:16:17;-6.60;99.90
22623;DHT22;11478;51.094;7.030;2024-01-11T01:18:43;-6.60;99.90
22623;DHT22;11478;51.094;7.030;2024-01-11T01:21:09;-6.60;99.90
22623;DHT22;11478;51.094;7.030;2024-01-11T01:23:35;-6.60;99.90
22623;DHT22;11478;51.094;7.030;2024-01-11T01:26:08;-6.60;99.90
22623;DHT22;11478;51.094;7.030;2024-01-11T01:28:34;-6.60;99.90
22623;DHT22;11478;51.094;7.030;2024-01-11T01:31:10;-6.70;99.90
22623;DHT22;11478;51.094;7.030;2024-01-11T01:33:35;-6.70;99.90
22623;DHT22;11478;51.094;7.030;2024-01-11T01:36:01;-6.70;99.90
22623;DHT22;11478;51.094;7.030;2024-01-11T01:38:27;-6.70;99.90
22623;DHT22;11478;51.094;7.030;2024-01-11T01:40:53;-6.80;99.90
22623;DHT22;11478;51.094;7.030;2024-01-11T01:43:19;-6.80;99.90
22623;DHT22;11478;51.094;7.030;2024-01-11T01:45:55;-6.80;99.90
22623;DHT22;11478;51.094;7.030;2024-01-11T01:48:21;-6.80;99.90
22623;DHT22;11478;51.094;7.030;2024-01-11T01:50:48;-6.80;99.90
22623;DHT22;11478;51.094;7.030;2024-01-11T01:53:22;-6.80;99.90
22623;DHT22;11478;51.094;7.030;2024-01-11T01:55:48;-6.80;99.90
22623;DHT22;11478;51.094;7.030;2024-01-11T01:58:16;-6.80;99.90
22623;DHT22;11478;51.094;7.030;2024-01-11T02:00:44;-6.80;99.90
22623;DHT22;11478;51.094;7.030;2024-01-11T02:03:12;-6.80;99.90
22623;DHT22;11478;51.094;7.030;2024-01-11T02:05:38;-6.80;99.90
22623;DHT22;11478;51.094;7.030;2024-01-11T02:08:06;-6.80;99.90
22623;DHT22;11478;51.094;7.030;2024-01-11T02:10:34;-6.80;99.90
22623;DHT22;11478;51.094;7.030;2024-01-11T02:13:02;-6.80;99.90
22623;DHT22;11478;51.094;7.030;2024-01-11T02:15:28;-6.90;99.90
22623;DHT22;11478;51.094;7.030;2024-01-11T02:17:57;-6.90;99.90
22623;DHT22;11478;51.094;7.030;2024-01-11T02:20:23;-6.90;99.90
22623;DHT22;11478;51.094;7.030;2024-01-11T02:22:54;-6.90;99.90
22623;DHT22;11478;51.094;7.030;2024-01-11T02:25:21;-6.90;99.90
22623;DHT22;11478;51.094;7.030;2024-01-11T02:27:51;-6.90;99.90
22623;DHT22;11478;51.094;7.030;2024-01-11T02:30:17;-6.90;99.90
22623;DHT22;11478;51.094;7.030;2024-01-11T02:32:56;-6.90;99.90
22623;DHT22;11478;51.094;7.030;2024-01-11T02:35:23;-6.90;99.90
22623;DHT22;11478;51.094;7.030;2024-01-11T02:37:50;-6.90;99.90
22623;DHT22;11478;51.094;7.030;2024-01-11T02:40:16;-6.90;99.90
22623;DHT22;11478;51.094;7.030;2024-01-11T02:43:09;-7.00;99.90
22623;DHT22;11478;51.094;7.030;2024-01-11T02:45:36;-7.00;99.90
22623;DHT22;11478;51.094;7.030;2024-01-11T02:48:04;-7.00;99.90
22623;DHT22;11478;51.094;7.030;2024-01-11T02:50:30;-7.00;99.90
22623;DHT22;11478;51.094;7.030;2024-01-11T02:52:58;-7.00;99.90
22623;DHT22;11478;51.094;7.030;2024-01-11T02:55:23;-7.00;99.90
22623;DHT22;11478;51.094;7.030;2024-01-11T02:57:50;-7.00;99.90
22623;DHT22;11478;51.094;7.030;2024-01-11T03:00:16;-7.00;99.90
22623;DHT22;11478;51.094;7.030;2024-01-11T03:02:42;-7.00;99.90
22623;DHT22;11478;51.094;7.030;2024-01-11T03:05:08;-7.10;99.90
22623;DHT22;11478;51.094;7.030;2024-01-11T03:07:34;-7.10;99.90
22623;DHT22;11478;51.094;7.030;2024-01-11T03:10:00;-7.10;99.90
22623;DHT22;11478;51.094;7.030;2024-01-11T03:12:25;-7.10;99.90
22623;DHT22;11478;51.094;7.030;2024-01-11T03:14:53;-7.10;99.90
22623;DHT22;11478;51.094;7.030;2024-01-11T03:17:19;-7.10;99.90
22623;DHT22;11478;51.094;7.030;2024-01-11T03:20:14;-7.20;99.90
22623;DHT22;11478;51.094;7.030;2024-01-11T03:22:47;-7.20;99.90
22623;DHT22;11478;51.094;7.030;2024-01-11T03:25:13;-7.20;99.90
22623;DHT22;11478;51.094;7.030;2024-01-11T03:27:47;-7.20;99.90
22623;DHT22;11478;51.094;7.030;2024-01-11T03:30:13;-7.20;99.90
22623;DHT22;11478;51.094;7.030;2024-01-11T03:32:47;-7.20;99.90
22623;DHT22;11478;51.094;7.030;2024-01-11T03:35:13;-7.10;99.90
22623;DHT22;11478;51.094;7.030;2024-01-11T03:37:47;-7.20;99.90
22623;DHT22;11478;51.094;7.030;2024-01-11T03:40:13;-7.20;99.90
22623;DHT22;11478;51.094;7.030;2024-01-11T03:42:42;-7.20;99.90
22623;DHT22;11478;51.094;7.030;2024-01-11T03:45:09;-7.20;99.90
22623;DHT22;11478;51.094;7.030;2024-01-11T03:47:37;-7.30;99.90
22623;DHT22;11478;51.094;7.030;2024-01-11T03:50:03;-7.30;99.90
22623;DHT22;11478;51.094;7.030;2024-01-11T03:52:30;-7.30;99.90
22623;DHT22;11478;51.094;7.030;2024-01-11T03:54:56;-7.30;99.90
22623;DHT22;11478;51.094;7.030;2024-01-11T03:57:48;-7.30;99.90
22623;DHT22;11478;51.094;7.030;2024-01-11T04:00:17;-7.30;99.90
22623;DHT22;11478;51.094;7.030;2024-01-11T04:02:43;-7.30;99.90
22623;DHT22;11478;51.094;7.030;2024-01-11T04:05:08;-7.30;99.90
22623;DHT22;11478;51.094;7.030;2024-01-11T04:07:34;-7.30;99.90
22623;DHT22;11478;51.094;7.030;2024-01-11T04:10:14;-7.30;99.90
22623;DHT22;11478;51.094;7.030;2024-01-11T04:12:40;-7.30;99.90
22623;DHT22;11478;51.094;7.030;2024-01-11T04:15:15;-7.30;99.90
22623;DHT22;11478;51.094;7.030;2024-01-11T04:17:41;-7.30;99.90
22623;DHT22;11478;51.094;7.030;2024-01-11T04:20:09;-7.30;99.90
22623;DHT22;11478;51.094;7.030;2024-01-11T04:22:35;-7.30;99.90
22623;DHT22;11478;51.094;7.030;2024-01-11T04:25:01;-7.40;99.90
22623;DHT22;11478;51.094;7.030;2024-01-11T04:27:27;-7.40;99.90
22623;DHT22;11478;51.094;7.030;2024-01-11T04:30:02;-7.40;99.90
22623;DHT22;11478;51.094;7.030;2024-01-11T04:32:28;-7.40;99.90
22623;DHT22;11478;51.094;7.030;2024-01-11T04:34:56;-7.50;99.90
22623;DHT22;11478;51.094;7.030;2024-01-11T04:37:22;-7.50;99.90
22623;DHT22;11478;51.094;7.030;2024-01-11T04:39:57;-7.50;99.90
22623;DHT22;11478;51.094;7.030;2024-01-11T04:42:27;-7.50;99.90
22623;DHT22;11478;51.094;7.030;2024-01-11T04:45:09;-7.50;99.90
22623;DHT22;11478;51.094;7.030;2024-01-11T04:47:35;-7.50;99.90
22623;DHT22;11478;51.094;7.030;2024-01-11T04:50:09;-7.50;99.90
22623;DHT22;11478;51.094;7.030;2024-01-11T04:52:35;-7.50;99.90
22623;DHT22;11478;51.094;7.030;2024-01-11T04:55:08;-7.60;99.90
22623;DHT22;11478;51.094;7.030;2024-01-11T04:57:34;-7.60;99.90
22623;DHT22;11478;51.094;7.030;2024-01-11T05:00:02;-7.60;99.90
22623;DHT22;11478;51.094;7.030;2024-01-11T05:02:28;-7.60;99.90
22623;DHT22;11478;51.094;7.030;2024-01-11T05:05:06;-7.70;99.90
22623;DHT22;11478;51.094;7.030;2024-01-11T05:07:39;-7.70;99.90
22623;DHT22;11478;51.094;7.030;2024-01-11T05:10:05;-7.70;99.90
22623;DHT22;11478;51.094;7.030;2024-01-11T05:12:32;-7.70;99.90
22623;DHT22;11478;51.094;7.030;2024-01-11T05:14:58;-7.70;99.90
22623;DHT22;11478;51.094;7.030;2024-01-11T05:17:54;-7.70;99.90
22623;DHT22;11478;51.094;7.030;2024-01-11T05:20:20;-7.70;99.90
22623;DHT22;11478;51.094;7.030;2024-01-11T05:23:00;-7.70;99.90
22623;DHT22;11478;51.094;7.030;2024-01-11T05:25:26;-7.70;99.90
22623;DHT22;11478;51.094;7.030;2024-01-11T05:27:57;-7.70;99.90
22623;DHT22;11478;51.094;7.030;2024-01-11T05:30:23;-7.70;99.90
22623;DHT22;11478;51.094;7.030;2024-01-11T05:33:09;-7.70;99.90
22623;DHT22;11478;51.094;7.030;2024-01-11T05:35:35;-7.70;99.90
22623;DHT22;11478;51.094;7.030;2024-01-11T05:38:06;-7.70;99.90
22623;DHT22;11478;51.094;7.030;2024-01-11T05:40:32;-7.80;99.90
22623;DHT22;11478;51.094;7.030;2024-01-11T05:43:03;-7.80;99.90
22623;DHT22;11478;51.094;7.030;2024-01-11T05:45:29;-7.80;99.90
22623;DHT22;11478;51.094;7.030;2024-01-11T05:47:55;-7.80;99.90
22623;DHT22;11478;51.094;7.030;2024-01-11T05:50:21;-7.90;99.90
22623;DHT22;11478;51.094;7.030;2024-01-11T05:52:47;-7.90;99.90
22623;DHT22;11478;51.094;7.030;2024-01-11T05:55:13;-7.90;99.90
22623;DHT22;11478;51.094;7.030;2024-01-11T05:57:39;-7.90;99.90
22623;DHT22;11478;51.094;7.030;2024-01-11T06:00:05;-8.00;99.90
22623;DHT22;11478;51.094;7.030;2024-01-11T06:02:31;-8.00;99.90
22623;DHT22;11478;51.094;7.030;2024-01-11T06:04:57;-8.00;99.90
22623;DHT22;11478;51.094;7.030;2024-01-11T06:07:23;-8.00;99.90
22623;DHT22;11478;51.094;7.030;2024-01-11T06:09:51;-8.00;99.90
22623;DHT22;11478;51.094;7.030;2024-01-11T06:12:17;-8.00;99.90
22623;DHT22;11478;51.094;7.030;2024-01-11T06:14:43;-8.00;99.90
22623;DHT22;11478;51.094;7.030;2024-01-11T06:17:08;-7.90;99.90
22623;DHT22;11478;51.094;7.030;2024-01-11T06:19:37;-8.00;99.90
22623;DHT22;11478;51.094;7.030;2024-01-11T06:22:04;-8.00;99.90
22623;DHT22;11478;51.094;7.030;2024-01-11T06:24:43;-8.00;99.90
22623;DHT22;11478;51.094;7.030;2024-01-11T06:27:09;-8.00;99.90
22623;DHT22;11478;51.094;7.030;2024-01-11T06:29:35;-8.00;99.90
22623;DHT22;11478;51.094;7.030;2024-01-11T06:32:01;-8.00;99.90
22623;DHT22;11478;51.094;7.030;2024-01-11T06:34:28;-8.00;99.90
22623;DHT22;11478;51.094;7.030;2024-01-11T06:36:55;-8.10;99.90
22623;DHT22;11478;51.094;7.030;2024-01-11T06:39:29;-8.10;99.90
22623;DHT22;11478;51.094;7.030;2024-01-11T06:41:55;-8.10;99.90
22623;DHT22;11478;51.094;7.030;2024-01-11T06:44:22;-8.10;99.90
22623;DHT22;11478;51.094;7.030;2024-01-11T06:46:48;-8.10;99.90
22623;DHT22;11478;51.094;7.030;2024-01-11T06:49:29;-8.10;99.90
22623;DHT22;11478;51.094;7.030;2024-01-11T06:51:55;-8.10;99.90
22623;DHT22;11478;51.094;7.030;2024-01-11T06:54:21;-8.20;99.90
22623;DHT22;11478;51.094;7.030;2024-01-11T06:56:47;-8.20;99.90
22623;DHT22;11478;51.094;7.030;2024-01-11T06:59:14;-8.20;99.90
22623;DHT22;11478;51.094;7.030;2024-01-11T07:01:40;-8.20;99.90
22623;DHT22;11478;51.094;7.030;2024-01-11T07:04:16;-8.20;99.90
22623;DHT22;11478;51.094;7.030;2024-01-11T07:06:44;-8.20;99.90
22623;DHT22;11478;51.094;7.030;2024-01-11T07:09:10;-8.20;99.90
22623;DHT22;11478;51.094;7.030;2024-01-11T07:11:36;-8.20;99.90
22623;DHT22;11478;51.094;7.030;2024-01-11T07:14:02;-8.30;99.90
22623;DHT22;11478;51.094;7.030;2024-01-11T07:16:35;-8.30;99.90
22623;DHT22;11478;51.094;7.030;2024-01-11T07:19:01;-8.30;99.90
22623;DHT22;11478;51.094;7.030;2024-01-11T07:21:35;-8.30;99.90
22623;DHT22;11478;51.094;7.030;2024-01-11T07:24:01;-8.30;99.90
22623;DHT22;11478;51.094;7.030;2024-01-11T07:26:32;-8.30;99.90
22623;DHT22;11478;51.094;7.030;2024-01-11T07:28:58;-8.30;99.90
22623;DHT22;11478;51.094;7.030;2024-01-11T07:31:24;-8.30;99.90
22623;DHT22;11478;51.094;7.030;2024-01-11T07:33:50;-8.30;99.90
22623;DHT22;11478;51.094;7.030;2024-01-11T07:36:18;-8.30;99.90
22623;DHT22;11478;51.094;7.030;2024-01-11T07:38:44;-8.30;99.90
22623;DHT22;11478;51.094;7.030;2024-01-11T07:41:10;-8.20;99.90
22623;DHT22;11478;51.094;7.030;2024-01-11T07:43:36;-8.30;99.90
22623;DHT22;11478;51.094;7.030;2024-01-11T07:46:02;-8.30;99.90
22623;DHT22;11478;51.094;7.030;2024-01-11T07:48:29;-8.30;99.90
22623;DHT22;11478;51.094;7.030;2024-01-11T07:51:07;-8.30;99.90
22623;DHT22;11478;51.094;7.030;2024-01-11T07:53:33;-8.30;99.90
22623;DHT22;11478;51.094;7.030;2024-01-11T07:56:03;-8.30;99.90
22623;DHT22;11478;51.094;7.030;2024-01-11T07:58:28;-8.20;99.90
22623;DHT22;11478;51.094;7.030;2024-01-11T08:00:54;-8.30;99.90
22623;DHT22;11478;51.094;7.030;2024-01-11T08:03:20;-8.30;99.90
22623;DHT22;11478;51.094;7.030;2024-01-11T08:05:51;-8.20;99.90
22623;DHT22;11478;51.094;7.030;2024-01-11T08:08:23;-8.20;99.90
22623;DHT22;11478;51.094;7.030;2024-01-11T08:10:49;-8.20;99.90
22623;DHT22;11478;51.094;7.030;2024-01-11T08:13:27;-8.20;99.90
22623;DHT22;11478;51.094;7.030;2024-01-11T08:15:52;-8.10;99.90
22623;DHT22;11478;51.094;7.030;2024-01-11T08:18:19;-8.10;99.90
22623;DHT22;11478;51.094;7.030;2024-01-11T08:20:45;-8.10;99.90
22623;DHT22;11478;51.094;7.030;2024-01-11T08:23:12;-8.10;99.90
22623;DHT22;11478;51.094;7.030;2024-01-11T08:25:38;-8.00;99.90
22623;DHT22;11478;51.094;7.030;2024-01-11T08:28:05;-8.00;99.90
22623;DHT22;11478;51.094;7.030;2024-01-11T08:30:31;-8.00;99.90
22623;DHT22;11478;51.094;7.030;2024-01-11T08:33:07;-7.90;99.90
22623;DHT22;11478;51.094;7.030;2024-01-11T08:35:33;-7.90;99.90
22623;DHT22;11478;51.094;7.030;2024-01-11T08:38:03;-7.90;99.90
22623;DHT22;11478;51.094;7.030;2024-01-11T08:40:29;-7.80;99.90
22623;DHT22;11478;51.094;7.030;2024-01-11T08:42:55;-7.80;99.90
22623;DHT22;11478;51.094;7.030;2024-01-11T08:45:21;-7.70;99.90
22623;DHT22;11478;51.094;7.030;2024-01-11T08:47:48;-7.70;99.90
22623;DHT22;11478;51.094;7.030;2024-01-11T08:50:15;-7.70;99.90
22623;DHT22;11478;51.094;7.030;2024-01-11T08:52:42;-7.60;99.90
22623;DHT22;11478;51.094;7.030;2024-01-11T08:55:08;-7.60;99.90
22623;DHT22;11478;51.094;7.030;2024-01-11T08:57:34;-7.50;99.90
22623;DHT22;11478;51.094;7.030;2024-01-11T09:00:04;-7.50;99.90
22623;DHT22;11478;51.094;7.030;2024-01-11T09:02:33;-7.40;99.90
22623;DHT22;11478;51.094;7.030;2024-01-11T09:05:01;-7.40;99.90
22623;DHT22;11478;51.094;7.030;2024-01-11T09:07:27;-7.30;99.90
22623;DHT22;11478;51.094;7.030;2024-01-11T09:09:55;-7.30;99.90
22623;DHT22;11478;51.094;7.030;2024-01-11T09:12:21;-7.20;99.90
22623;DHT22;11478;51.094;7.030;2024-01-11T09:14:51;-7.20;99.90
22623;DHT22;11478;51.094;7.030;2024-01-11T09:17:17;-7.10;99.90
22623;DHT22;11478;51.094;7.030;2024-01-11T09:19:44;-7.00;99.90
22623;DHT22;11478;51.094;7.030;2024-01-11T09:22:10;-6.90;99.90
22623;DHT22;11478;51.094;7.030;2024-01-11T09:24:52;-6.80;99.90
22623;DHT22;11478;51.094;7.030;2024-01-11T09:27:21;-6.70;99.90
22623;DHT22;11478;51.094;7.030;2024-01-11T09:29:53;-6.70;99.90
22623;DHT22;11478;51.094;7.030;2024-01-11T09:32:21;-6.60;99.90
22623;DHT22;11478;51.094;7.030;2024-01-11T09:34:52;-6.60;99.90
22623;DHT22;11478;51.094;7.030;2024-01-11T09:37:20;-6.50;99.90
22623;DHT22;11478;51.094;7.030;2024-01-11T09:39:55;-6.40;99.90
22623;DHT22;11478;51.094;7.030;2024-01-11T09:42:21;-6.40;99.90
22623;DHT22;11478;51.094;7.030;2024-01-11T09:44:50;-6.30;99.90
22623;DHT22;11478;51.094;7.030;2024-01-11T09:47:16;-6.20;99.90
22623;DHT22;11478;51.094;7.030;2024-01-11T09:49:50;-6.10;99.90
22623;DHT22;11478;51.094;7.030;2024-01-11T09:52:20;-6.10;99.90
22623;DHT22;11478;51.094;7.030;2024-01-11T09:54:46;-6.00;99.90
22623;DHT22;11478;51.094;7.030;2024-01-11T09:57:15;-5.90;99.90
22623;DHT22;11478;51.094;7.030;2024-01-11T09:59:43;-5.80;99.90
22623;DHT22;11478;51.094;7.030;2024-01-11T10:02:10;-5.80;99.90
22623;DHT22;11478;51.094;7.030;2024-01-11T10:04:37;-5.70;99.90
22623;DHT22;11478;51.094;7.030;2024-01-11T10:07:04;-5.60;99.90
22623;DHT22;11478;51.094;7.030;2024-01-11T10:09:34;-5.60;99.90
22623;DHT22;11478;51.094;7.030;2024-01-11T10:12:00;-5.50;99.90
22623;DHT22;11478;51.094;7.030;2024-01-11T10:14:28;-5.50;99.90
22623;DHT22;11478;51.094;7.030;2024-01-11T10:16:54;-5.40;99.90
22623;DHT22;11478;51.094;7.030;2024-01-11T10:19:22;-5.40;99.90
22623;DHT22;11478;51.094;7.030;2024-01-11T10:21:48;-5.30;99.90
22623;DHT22;11478;51.094;7.030;2024-01-11T10:24:20;-5.20;99.90
22623;DHT22;11478;51.094;7.030;2024-01-11T10:26:47;-5.10;99.90
22623;DHT22;11478;51.094;7.030;2024-01-11T10:29:13;-5.10;99.90
22623;DHT22;11478;51.094;7.030;2024-01-11T10:31:40;-5.00;99.90
22623;DHT22;11478;51.094;7.030;2024-01-11T10:34:31;-5.00;99.90
22623;DHT22;11478;51.094;7.030;2024-01-11T10:37:07;-4.90;99.90
22623;DHT22;11478;51.094;7.030;2024-01-11T10:39:36;-4.80;99.90
22623;DHT22;11478;51.094;7.030;2024-01-11T10:42:10;-4.80;99.90
22623;DHT22;11478;51.094;7.030;2024-01-11T10:44:39;-4.80;99.90
22623;DHT22;11478;51.094;7.030;2024-01-11T10:47:13;-4.70;99.90
22623;DHT22;11478;51.094;7.030;2024-01-11T10:50:15;-4.60;99.90
22623;DHT22;11478;51.094;7.030;2024-01-11T10:56:13;-4.40;99.90
22623;DHT22;11478;51.094;7.030;2024-01-11T10:58:49;-4.30;99.90
22623;DHT22;11478;51.094;7.030;2024-01-11T11:01:23;-4.30;99.90
22623;DHT22;11478;51.094;7.030;2024-01-11T11:04:06;-4.30;99.90
22623;DHT22;11478;51.094;7.030;2024-01-11T11:06:42;-4.20;99.90
22623;DHT22;11478;51.094;7.030;2024-01-11T11:09:11;-4.20;99.90
22623;DHT22;11478;51.094;7.030;2024-01-11T11:11:40;-4.10;99.90
22623;DHT22;11478;51.094;7.030;2024-01-11T11:14:06;-4.10;99.90
22623;DHT22;11478;51.094;7.030;2024-01-11T11:16:35;-4.00;99.90
22623;DHT22;11478;51.094;7.030;2024-01-11T11:19:01;-3.90;99.90
22623;DHT22;11478;51.094;7.030;2024-01-11T11:21:29;-3.90;99.90
22623;DHT22;11478;51.094;7.030;2024-01-11T11:23:55;-3.90;99.90
22623;DHT22;11478;51.094;7.030;2024-01-11T11:26:26;-3.80;99.90
22623;DHT22;11478;51.094;7.030;2024-01-11T11:28:56;-3.70;99.90
22623;DHT22;11478;51.094;7.030;2024-01-11T11:31:44;-3.70;99.90
22623;DHT22;11478;51.094;7.030;2024-01-11T11:34:13;-3.60;99.90
22623;DHT22;11478;51.094;7.030;2024-01-11T11:36:47;-3.50;99.90
22623;DHT22;11478;51.094;7.030;2024-01-11T11:39:15;-3.50;99.90
22623;DHT22;11478;51.094;7.030;2024-01-11T11:41:53;-3.40;99.90
22623;DHT22;11478;51.094;7.030;2024-01-11T11:44:23;-3.40;99.90
22623;DHT22;11478;51.094;7.030;2024-01-11T11:46:49;-3.30;99.90
22623;DHT22;11478;51.094;7.030;2024-01-11T11:49:15;-3.20;99.90
22623;DHT22;11478;51.094;7.030;2024-01-11T11:51:44;-3.10;99.90
22623;DHT22;11478;51.094;7.030;2024-01-11T11:54:13;-3.00;99.90
22623;DHT22;11478;51.094;7.030;2024-01-11T11:56:42;-3.00;99.90
22623;DHT22;11478;51.094;7.030;2024-01-11T11:59:08;-2.90;99.90
22623;DHT22;11478;51.094;7.030;2024-01-11T12:01:43;-2.90;99.90
22623;DHT22;11478;51.094;7.030;2024-01-11T12:04:14;-2.90;99.90
22623;DHT22;11478;51.094;7.030;2024-01-11T12:06:43;-2.90;99.90
22623;DHT22;11478;51.094;7.030;2024-01-11T12:09:11;-2.90;99.90
22623;DHT22;11478;51.094;7.030;2024-01-11T12:11:44;-2.90;99.90
22623;DHT22;11478;51.094;7.030;2024-01-11T12:14:10;-2.80;99.90
22623;DHT22;11478;51.094;7.030;2024-01-11T12:16:37;-2.80;99.90
22623;DHT22;11478;51.094;7.030;2024-01-11T12:19:26;-2.70;99.90
22623;DHT22;11478;51.094;7.030;2024-01-11T12:22:01;-2.70;99.90
22623;DHT22;11478;51.094;7.030;2024-01-11T12:24:27;-2.60;99.90
22623;DHT22;11478;51.094;7.030;2024-01-11T12:27:00;-2.60;99.90
22623;DHT22;11478;51.094;7.030;2024-01-11T12:29:29;-2.60;99.90
22623;DHT22;11478;51.094;7.030;2024-01-11T12:31:59;-2.50;99.90
22623;DHT22;11478;51.094;7.030;2024-01-11T12:34:28;-2.50;99.90
22623;DHT22;11478;51.094;7.030;2024-01-11T12:36:58;-2.40;99.90
22623;DHT22;11478;51.094;7.030;2024-01-11T12:39:26;-2.40;99.90
22623;DHT22;11478;51.094;7.030;2024-01-11T12:42:00;-2.40;99.90
22623;DHT22;11478;51.094;7.030;2024-01-11T12:44:26;-2.40;99.90
22623;DHT22;11478;51.094;7.030;2024-01-11T12:46:59;-2.30;99.90
22623;DHT22;11478;51.094;7.030;2024-01-11T12:49:25;-2.30;99.90
22623;DHT22;11478;51.094;7.030;2024-01-11T12:51:51;-2.30;99.90
22623;DHT22;11478;51.094;7.030;2024-01-11T12:54:16;-2.30;99.90
22623;DHT22;11478;51.094;7.030;2024-01-11T12:56:49;-2.30;99.90
22623;DHT22;11478;51.094;7.030;2024-01-11T12:59:15;-2.30;99.90
22623;DHT22;11478;51.094;7.030;2024-01-11T13:01:59;-2.30;99.90
22623;DHT22;11478;51.094;7.030;2024-01-11T13:04:31;-2.30;99.90
22623;DHT22;11478;51.094;7.030;2024-01-11T13:07:02;-2.30;99.90
22623;DHT22;11478;51.094;7.030;2024-01-11T13:09:28;-2.20;99.90
22623;DHT22;11478;51.094;7.030;2024-01-11T13:12:09;-2.30;99.90
22623;DHT22;11478;51.094;7.030;2024-01-11T13:14:34;-2.20;99.90
22623;DHT22;11478;51.094;7.030;2024-01-11T13:17:03;-2.30;99.90
22623;DHT22;11478;51.094;7.030;2024-01-11T13:19:29;-2.30;99.90
22623;DHT22;11478;51.094;7.030;2024-01-11T13:22:00;-2.20;99.90
22623;DHT22;11478;51.094;7.030;2024-01-11T13:24:28;-2.20;99.90
22623;DHT22;11478;51.094;7.030;2024-01-11T13:26:54;-2.20;99.90
22623;DHT22;11478;51.094;7.030;2024-01-11T13:29:21;-2.20;99.90
22623;DHT22;11478;51.094;7.030;2024-01-11T13:31:51;-2.20;99.90
22623;DHT22;11478;51.094;7.030;2024-01-11T13:34:17;-2.20;99.90
22623;DHT22;11478;51.094;7.030;2024-01-11T13:36:58;-2.10;99.90
22623;DHT22;11478;51.094;7.030;2024-01-11T13:39:25;-2.10;99.90
22623;DHT22;11478;51.094;7.030;2024-01-11T13:41:54;-2.10;99.90
22623;DHT22;11478;51.094;7.030;2024-01-11T13:44:20;-2.10;99.90
22623;DHT22;11478;51.094;7.030;2024-01-11T13:46:51;-2.10;99.90
22623;DHT22;11478;51.094;7.030;2024-01-11T13:49:17;-2.10;99.90
22623;DHT22;11478;51.094;7.030;2024-01-11T13:51:46;-2.10;99.90
22623;DHT22;11478;51.094;7.030;2024-01-11T13:54:13;-2.00;99.90
22623;DHT22;11478;51.094;7.030;2024-01-11T13:56:55;-2.00;99.90
22623;DHT22;11478;51.094;7.030;2024-01-11T13:59:21;-2.00;99.90
22623;DHT22;11478;51.094;7.030;2024-01-11T14:01:56;-2.00;99.90
22623;DHT22;11478;51.094;7.030;2024-01-11T14:04:32;-2.00;99.90
22623;DHT22;11478;51.094;7.030;2024-01-11T14:07:02;-2.00;99.90
22623;DHT22;11478;51.094;7.030;2024-01-11T14:09:31;-1.90;99.90
22623;DHT22;11478;51.094;7.030;2024-01-11T14:12:01;-2.00;99.90
22623;DHT22;11478;51.094;7.030;2024-01-11T14:14:30;-2.00;99.90
22623;DHT22;11478;51.094;7.030;2024-01-11T14:17:07;-2.00;99.90
22623;DHT22;11478;51.094;7.030;2024-01-11T14:19:33;-2.00;99.90
22623;DHT22;11478;51.094;7.030;2024-01-11T14:22:03;-2.00;99.90
22623;DHT22;11478;51.094;7.030;2024-01-11T14:24:29;-2.00;99.90
22623;DHT22;11478;51.094;7.030;2024-01-11T14:27:02;-1.90;99.90
22623;DHT22;11478;51.094;7.030;2024-01-11T14:29:37;-2.00;99.90
22623;DHT22;11478;51.094;7.030;2024-01-11T14:32:08;-2.00;99.90
22623;DHT22;11478;51.094;7.030;2024-01-11T14:34:43;-2.00;99.90
22623;DHT22;11478;51.094;7.030;2024-01-11T14:37:13;-2.00;99.90
22623;DHT22;11478;51.094;7.030;2024-01-11T14:39:41;-2.00;99.90
22623;DHT22;11478;51.094;7.030;2024-01-11T14:42:08;-2.10;99.90
22623;DHT22;11478;51.094;7.030;2024-01-11T14:44:37;-2.10;99.90
22623;DHT22;11478;51.094;7.030;2024-01-11T14:47:04;-2.10;99.90
22623;DHT22;11478;51.094;7.030;2024-01-11T14:49:33;-2.10;99.90
22623;DHT22;11478;51.094;7.030;2024-01-11T14:55:39;-2.20;99.90
22623;DHT22;11478;51.094;7.030;2024-01-11T18:17:23;-4.20;99.90
22623;DHT22;11478;51.094;7.030;2024-01-11T18:23:13;-4.00;99.90
22623;DHT22;11478;51.094;7.030;2024-01-11T18:25:39;-3.90;99.90
22623;DHT22;11478;51.094;7.030;2024-01-11T18:28:28;-3.80;99.90
22623;DHT22;11478;51.094;7.030;2024-01-11T18:30:54;-3.80;99.90
22623;DHT22;11478;51.094;7.030;2024-01-11T18:33:35;-3.60;99.90
22623;DHT22;11478;51.094;7.030;2024-01-11T18:36:01;-3.60;99.90
22623;DHT22;11478;51.094;7.030;2024-01-11T18:38:28;-3.50;99.90
22623;DHT22;11478;51.094;7.030;2024-01-11T18:40:54;-3.50;99.90
22623;DHT22;11478;51.094;7.030;2024-01-11T18:43:35;-3.40;99.90
22623;DHT22;11478;51.094;7.030;2024-01-11T18:46:02;-3.30;99.90
22623;DHT22;11478;51.094;7.030;2024-01-11T18:48:29;-3.30;99.90
22623;DHT22;11478;51.094;7.030;2024-01-11T18:50:55;-3.20;99.90
22623;DHT22;11478;51.094;7.030;2024-01-11T18:53:23;-3.10;99.90
22623;DHT22;11478;51.094;7.030;2024-01-11T18:55:49;-3.10;99.90
22623;DHT22;11478;51.094;7.030;2024-01-11T18:58:15;-3.00;99.90
22623;DHT22;11478;51.094;7.030;2024-01-11T19:00:44;-3.00;99.90
22623;DHT22;11478;51.094;7.030;2024-01-11T19:03:12;-2.90;99.90
22623;DHT22;11478;51.094;7.030;2024-01-11T19:05:40;-2.90;99.90
22623;DHT22;11478;51.094;7.030;2024-01-11T19:08:14;-2.80;99.90
22623;DHT22;11478;51.094;7.030;2024-01-11T19:10:39;-2.80;99.90